Da Costa, Texas
Current Conditions -  °F | °C
As of 6:51 AM on Monday 22 Dec 2014 (Local Time) from KVCT Reporting Station
Haze Haze  
Wind Chill: 61°   Ceiling: 200
Heat Index: 61°   Visibility: 2mi
Dew Point: 59°   Wind: 8mph
Humidity: 93%   Direction: 220°SW
Pressure: 29.77"   Gusts: NA
Location:  28.7094°N, 97.0351°W
Report Text: KVCT 221251Z 22007KT 2SM BR OVC002 16/15 A2977 RMK AO2 SLP081 T01610150 $
Loading
Personal Weather Stations






























Interactive Weather Map New forecast layout! Learn more

10-Day Weather Forecast

Advertisements
Track Severe Weather on mobile